Time;durP1;ratioP1;P1;durP2;ratioP2;P2;SDS_P1;SDS_P2;PMS_P1;PMS_P2;Temp;Humidity;BMP_temperature;BMP_pressure;BME280_temperature;BME280_humidity;BME280_pressure;Samples;Min_cycle;Max_cycle;Signal;HPM_P1;HPM_P2
2021/01/31 00:02:19;;;;;;;12.60;11.00;;;5.70;93.30;;;;;;5070380;28;20642;-51
2021/01/31 00:04:46;;;;;;;10.83;9.70;;;5.60;93.20;;;;;;5069500;28;21165;-51
2021/01/31 00:07:13;;;;;;;11.20;10.03;;;5.50;93.30;;;;;;5070348;28;20642;-51
2021/01/31 00:09:40;;;;;;;11.10;9.90;;;5.50;93.40;;;;;;5069803;28;21063;-52
2021/01/31 00:12:07;;;;;;;10.47;9.37;;;5.50;93.50;;;;;;5069941;28;20959;-53
2021/01/31 00:14:34;;;;;;;11.83;10.60;;;5.60;93.60;;;;;;5069357;28;21226;-53
2021/01/31 00:17:00;;;;;;;11.27;10.00;;;5.60;93.40;;;;;;5068727;28;20790;-52
2021/01/31 00:19:28;;;;;;;11.23;9.60;;;5.50;93.30;;;;;;5068122;28;20707;-52
2021/01/31 00:21:58;;;;;;;11.97;10.43;;;5.50;93.30;;;;;;5068323;28;21037;-53
2021/01/31 00:24:25;;;;;;;13.33;11.63;;;5.50;93.50;;;;;;5069006;28;21080;-53
2021/01/31 00:26:52;;;;;;;11.30;10.20;;;5.50;93.40;;;;;;5068754;28;20625;-54
2021/01/31 00:29:19;;;;;;;11.93;10.50;;;5.40;93.30;;;;;;5069336;28;20744;-52
2021/01/31 00:31:46;;;;;;;10.50;9.40;;;5.40;93.30;;;;;;5069050;28;20664;-52
2021/01/31 00:34:13;;;;;;;14.37;10.67;;;5.40;93.40;;;;;;5056836;28;20677;-53
2021/01/31 00:36:41;;;;;;;9.73;8.77;;;5.40;93.50;;;;;;5049548;28;20679;-53
2021/01/31 00:39:08;;;;;;;11.83;10.53;;;5.30;93.50;;;;;;5049704;28;20634;-54
2021/01/31 00:41:35;;;;;;;12.23;11.03;;;5.30;93.50;;;;;;5062326;28;20686;-53
2021/01/31 00:44:03;;;;;;;12.30;10.20;;;5.40;93.50;;;;;;5069494;28;20662;-53
2021/01/31 00:46:33;;;;;;;12.00;10.70;;;5.40;93.60;;;;;;5069184;28;20633;-52
2021/01/31 00:49:00;;;;;;;15.30;11.47;;;5.40;93.50;;;;;;5069214;28;20678;-53
2021/01/31 00:51:26;;;;;;;11.60;9.90;;;5.40;93.50;;;;;;5069783;28;20661;-53
2021/01/31 00:53:54;;;;;;;13.47;10.27;;;5.40;93.50;;;;;;5069394;28;20746;-52
2021/01/31 00:56:21;;;;;;;11.50;10.20;;;5.40;93.50;;;;;;5072550;28;20629;-53
2021/01/31 00:58:48;;;;;;;11.93;10.70;;;5.40;93.60;;;;;;5073537;28;20683;-55
2021/01/31 01:01:15;;;;;;;14.77;11.93;;;5.40;93.60;;;;;;5073708;28;20691;-52
2021/01/31 01:03:42;;;;;;;11.80;10.03;;;5.40;93.50;;;;;;5072789;28;20722;-54
2021/01/31 01:06:08;;;;;;;11.57;10.43;;;5.40;93.50;;;;;;5073094;28;21065;-55
2021/01/31 01:08:35;;;;;;;11.73;9.80;;;5.40;93.50;;;;;;5072078;28;20678;-53
2021/01/31 01:11:03;;;;;;;11.57;9.90;;;5.40;93.30;;;;;;5052996;28;20704;-56
2021/01/31 01:13:30;;;;;;;9.63;8.67;;;5.50;93.20;;;;;;5052722;28;20630;-56
2021/01/31 01:15:56;;;;;;;10.47;9.33;;;5.60;93.00;;;;;;5053336;28;20629;-55
2021/01/31 01:18:23;;;;;;;13.80;10.73;;;5.60;92.80;;;;;;5053147;28;21230;-56
2021/01/31 01:20:50;;;;;;;12.23;9.83;;;5.60;92.70;;;;;;5053035;28;20634;-56
2021/01/31 01:23:17;;;;;;;10.33;9.33;;;5.50;92.80;;;;;;5060884;28;20621;-56
2021/01/31 01:25:44;;;;;;;10.83;9.73;;;5.50;92.80;;;;;;5072668;28;20724;-56
2021/01/31 01:28:13;;;;;;;12.83;10.50;;;5.50;92.80;;;;;;5072692;28;20629;-56
2021/01/31 01:30:39;;;;;;;10.33;9.27;;;5.50;92.70;;;;;;5073303;28;20703;-56
2021/01/31 01:33:06;;;;;;;11.33;10.33;;;5.50;92.60;;;;;;5072995;28;20678;-56
2021/01/31 01:35:33;;;;;;;10.30;8.83;;;5.50;92.90;;;;;;5072875;28;20659;-56
2021/01/31 01:38:00;;;;;;;11.17;9.00;;;5.50;92.60;;;;;;5072537;28;20636;-54
2021/01/31 01:40:28;;;;;;;10.30;9.30;;;5.60;92.50;;;;;;5072830;28;20626;-55
2021/01/31 01:42:55;;;;;;;10.50;9.40;;;5.50;92.40;;;;;;5072266;28;20633;-56
2021/01/31 01:45:23;;;;;;;10.30;9.17;;;5.50;92.30;;;;;;5072420;28;20737;-55
2021/01/31 01:47:50;;;;;;;10.57;9.57;;;5.50;92.40;;;;;;5072299;28;20621;-54
2021/01/31 01:50:29;;;;;;;10.93;9.50;;;5.50;92.50;;;;;;5052821;28;20654;-51
2021/01/31 01:52:56;;;;;;;12.43;9.53;;;5.50;92.50;;;;;;5052368;28;20676;-52
2021/01/31 01:55:23;;;;;;;10.73;9.47;;;5.50;92.40;;;;;;5052705;28;20708;-51
2021/01/31 01:57:52;;;;;;;12.63;11.20;;;5.40;92.40;;;;;;5053946;28;20625;-52
2021/01/31 02:00:20;;;;;;;9.87;8.37;;;5.40;92.50;;;;;;5072381;28;21108;-55
2021/01/31 02:02:54;;;;;;;10.33;9.30;;;5.40;92.60;;;;;;5072691;28;20659;-55
2021/01/31 02:05:21;;;;;;;10.33;9.23;;;5.40;92.50;;;;;;5072145;28;20640;-54
2021/01/31 02:07:48;;;;;;;14.23;10.57;;;5.40;92.60;;;;;;5070993;28;20668;-53
2021/01/31 02:10:16;;;;;;;12.30;11.00;;;5.40;92.50;;;;;;5071331;28;20702;-53
2021/01/31 02:12:43;;;;;;;10.00;9.00;;;5.40;92.40;;;;;;5072200;28;20694;-54
2021/01/31 02:15:10;;;;;;;12.33;9.80;;;5.40;92.40;;;;;;5072130;28;21273;-52
2021/01/31 02:17:49;;;;;;;12.07;10.83;;;5.40;92.30;;;;;;5071205;28;20643;-55
2021/01/31 02:21:00;;;;;;;11.97;10.37;;;5.30;92.40;;;;;;5071753;28;20798;-53
2021/01/31 02:23:52;;;;;;;10.07;8.97;;;5.40;92.50;;;;;;5013797;28;20683;-53
2021/01/31 02:26:20;;;;;;;11.53;10.40;;;5.30;92.30;;;;;;5071751;28;21037;-52
2021/01/31 02:29:01;;;;;;;11.63;9.83;;;5.40;92.30;;;;;;5071769;28;20626;-53
2021/01/31 02:31:41;;;;;;;11.80;9.83;;;5.30;92.10;;;;;;5071786;28;20646;-51
2021/01/31 02:34:09;;;;;;;11.30;10.07;;;5.30;92.30;;;;;;5066614;28;20666;-51
2021/01/31 02:36:42;;;;;;;11.63;10.03;;;5.40;92.40;;;;;;5071432;28;20667;-51
2021/01/31 02:39:15;;;;;;;11.73;10.27;;;5.30;92.20;;;;;;5071536;28;20637;-51
2021/01/31 02:41:44;;;;;;;14.80;11.87;;;5.30;92.20;;;;;;5053540;28;20625;-51
2021/01/31 02:44:13;;;;;;;11.63;10.53;;;5.30;92.20;;;;;;5070400;28;20766;-52
2021/01/31 02:46:41;;;;;;;10.67;9.23;;;5.40;92.30;;;;;;5071605;28;21177;-54
2021/01/31 02:49:12;;;;;;;12.83;10.90;;;5.30;92.20;;;;;;5071097;28;20678;-53
2021/01/31 02:51:47;;;;;;;12.70;10.30;;;5.30;92.30;;;;;;5046923;28;20696;-52
2021/01/31 02:54:16;;;;;;;12.30;10.10;;;5.40;92.30;;;;;;5051040;28;20663;-52
2021/01/31 02:56:46;;;;;;;14.97;11.50;;;5.40;92.30;;;;;;5050621;28;21042;-53
2021/01/31 02:59:19;;;;;;;14.10;10.50;;;5.30;92.30;;;;;;5051417;28;20696;-52
2021/01/31 03:01:48;;;;;;;13.33;9.67;;;5.40;92.40;;;;;;5052743;28;20635;-52
2021/01/31 03:04:17;;;;;;;13.17;11.27;;;5.30;92.30;;;;;;5070464;28;20887;-53
2021/01/31 03:06:46;;;;;;;14.47;11.40;;;5.30;92.30;;;;;;5069324;28;20675;-52
2021/01/31 03:09:15;;;;;;;14.70;12.30;;;5.30;92.40;;;;;;5070861;28;21117;-54
2021/01/31 03:11:45;;;;;;;12.50;10.77;;;5.30;92.20;;;;;;5070484;28;20689;-53
2021/01/31 03:14:14;;;;;;;12.43;10.53;;;5.30;92.30;;;;;;5070049;28;20727;-52
2021/01/31 03:16:43;;;;;;;17.53;10.80;;;5.30;92.30;;;;;;5070607;28;21193;-54
2021/01/31 03:19:13;;;;;;;12.70;11.27;;;5.30;92.30;;;;;;5070654;28;20633;-52
2021/01/31 03:21:41;;;;;;;15.23;12.23;;;5.30;92.30;;;;;;5051027;28;20689;-56
2021/01/31 03:24:12;;;;;;;12.10;10.47;;;5.30;92.40;;;;;;5050821;28;20666;-56
2021/01/31 03:26:40;;;;;;;14.90;11.50;;;5.30;92.30;;;;;;5050769;28;21251;-52
2021/01/31 03:29:07;;;;;;;17.73;11.80;;;5.30;92.30;;;;;;5049231;28;20682;-55
2021/01/31 03:31:37;;;;;;;14.60;12.00;;;5.30;92.30;;;;;;5050146;28;20697;-53
2021/01/31 03:34:05;;;;;;;15.13;11.13;;;5.30;92.10;;;;;;5050289;28;21075;-55
2021/01/31 03:36:32;;;;;;;15.20;11.50;;;5.40;92.00;;;;;;5050438;28;21150;-53
2021/01/31 03:39:00;;;;;;;14.47;11.73;;;5.40;92.10;;;;;;5053957;28;20691;-53
2021/01/31 03:41:27;;;;;;;16.27;12.43;;;5.30;92.10;;;;;;5070596;28;21268;-53
2021/01/31 03:43:54;;;;;;;14.10;12.03;;;5.30;92.10;;;;;;5070291;28;20653;-53
2021/01/31 03:46:24;;;;;;;15.03;10.63;;;5.30;92.00;;;;;;5070406;28;20679;-53
2021/01/31 03:48:52;;;;;;;14.93;12.07;;;5.40;92.10;;;;;;5069927;28;20659;-54
2021/01/31 03:51:19;;;;;;;13.03;10.50;;;5.30;92.00;;;;;;5069949;28;20706;-53
2021/01/31 03:53:46;;;;;;;12.37;11.07;;;5.40;92.00;;;;;;5070152;28;20657;-53
2021/01/31 03:56:14;;;;;;;13.90;12.50;;;5.30;92.10;;;;;;5070233;28;20806;-54
2021/01/31 03:58:41;;;;;;;15.83;12.13;;;5.30;92.20;;;;;;5070334;28;20621;-53
2021/01/31 04:01:08;;;;;;;16.80;12.50;;;5.30;92.10;;;;;;5069500;28;20689;-53
2021/01/31 04:03:35;;;;;;;13.80;10.47;;;5.30;91.90;;;;;;5069819;28;20732;-53
2021/01/31 04:06:03;;;;;;;14.73;11.50;;;5.20;91.80;;;;;;5070220;28;20617;-52
2021/01/31 04:08:30;;;;;;;13.67;12.13;;;5.30;91.90;;;;;;5069729;28;20637;-53
2021/01/31 04:10:56;;;;;;;13.00;10.07;;;5.20;91.80;;;;;;5070028;28;20657;-55
2021/01/31 04:13:24;;;;;;;13.33;10.83;;;5.20;91.80;;;;;;5069630;28;20625;-54
2021/01/31 04:15:52;;;;;;;14.10;10.17;;;5.30;91.80;;;;;;5069951;28;20629;-55
2021/01/31 04:18:19;;;;;;;13.13;10.23;;;5.20;91.70;;;;;;5070027;28;20633;-55
2021/01/31 04:20:47;;;;;;;14.03;10.80;;;5.20;91.60;;;;;;5051461;28;21020;-54
2021/01/31 04:23:13;;;;;;;12.10;10.80;;;5.20;91.60;;;;;;5069865;28;20676;-52
2021/01/31 04:25:40;;;;;;;12.97;10.13;;;5.20;91.60;;;;;;5069876;28;20685;-55
2021/01/31 04:28:09;;;;;;;13.60;10.97;;;5.20;91.60;;;;;;5069810;28;20995;-54
2021/01/31 04:30:38;;;;;;;15.90;10.60;;;5.20;91.50;;;;;;5071271;28;20674;-53
2021/01/31 04:33:05;;;;;;;13.40;10.20;;;5.10;91.60;;;;;;5074076;28;20709;-52
2021/01/31 04:35:32;;;;;;;14.30;10.97;;;5.10;91.50;;;;;;5068060;28;21067;-53
2021/01/31 04:37:59;;;;;;;11.97;10.77;;;5.10;91.50;;;;;;5073992;28;20679;-53
2021/01/31 04:40:26;;;;;;;12.53;10.13;;;5.20;91.60;;;;;;5073632;28;20671;-53
2021/01/31 04:42:52;;;;;;;12.80;10.33;;;5.20;91.40;;;;;;5073695;28;20664;-54
2021/01/31 04:45:19;;;;;;;10.70;9.57;;;5.20;91.30;;;;;;5116013;22;20671;-59
2021/01/31 04:47:57;;;;;;;12.60;10.70;;;5.20;91.20;;;;;;5115321;28;20635;-59
2021/01/31 04:50:27;;;;;;;14.70;11.57;;;5.20;91.20;;;;;;5097224;28;20631;-58
2021/01/31 04:53:09;;;;;;;11.37;10.17;;;5.20;91.20;;;;;;5115167;28;21026;-57
2021/01/31 04:55:57;;;;;;;10.40;9.30;;;5.20;91.10;;;;;;5114798;28;20655;-56
2021/01/31 04:58:25;;;;;;;14.90;10.97;;;5.20;91.10;;;;;;5114725;28;20684;-59
2021/01/31 05:00:54;;;;;;;12.13;10.00;;;5.10;91.10;;;;;;5115367;28;20695;-60
2021/01/31 05:03:21;;;;;;;11.50;10.30;;;5.10;91.20;;;;;;5114691;28;20747;-58
2021/01/31 05:05:52;;;;;;;13.40;11.30;;;5.10;91.30;;;;;;5102838;28;20712;-57
2021/01/31 05:08:20;;;;;;;11.33;9.10;;;5.20;91.40;;;;;;5094612;28;20616;-57
2021/01/31 05:10:47;;;;;;;10.20;9.10;;;5.20;91.30;;;;;;5105768;28;20623;-57
2021/01/31 05:13:21;;;;;;;13.93;9.40;;;5.20;91.10;;;;;;5115102;28;20870;-59
2021/01/31 05:15:51;;;;;;;11.87;9.10;;;5.20;90.90;;;;;;5114728;28;20696;-59
2021/01/31 05:18:18;;;;;;;11.97;10.10;;;5.20;91.10;;;;;;5114389;28;20619;-58
2021/01/31 05:20:47;;;;;;;10.13;9.13;;;5.20;90.70;;;;;;5101870;28;20669;-57
2021/01/31 05:23:14;;;;;;;11.10;9.77;;;5.20;90.70;;;;;;5094478;28;20632;-59
2021/01/31 05:25:41;;;;;;;9.93;9.00;;;5.20;90.70;;;;;;5094516;28;20709;-59
2021/01/31 05:28:08;;;;;;;11.93;9.53;;;5.10;90.70;;;;;;5094684;28;21009;-59
2021/01/31 05:30:42;;;;;;;10.50;9.50;;;5.10;90.80;;;;;;5094596;28;20616;-56
2021/01/31 05:33:10;;;;;;;11.20;9.87;;;5.20;90.90;;;;;;5094256;28;21030;-59
2021/01/31 05:35:39;;;;;;;12.37;11.10;;;5.20;90.80;;;;;;5094514;28;21049;-57
2021/01/31 05:38:07;;;;;;;9.90;8.77;;;5.20;90.80;;;;;;5095160;28;20995;-57
2021/01/31 05:40:35;;;;;;;10.03;8.67;;;5.20;90.80;;;;;;5101927;28;20631;-57
2021/01/31 05:43:02;;;;;;;11.67;10.43;;;5.20;90.80;;;;;;5114059;28;20657;-56
2021/01/31 05:45:32;;;;;;;12.63;10.43;;;5.10;90.60;;;;;;5114082;28;20659;-57
2021/01/31 05:47:59;;;;;;;10.40;9.30;;;5.10;90.60;;;;;;5096221;28;20958;-59
2021/01/31 05:50:33;;;;;;;12.13;9.80;;;5.10;90.60;;;;;;5114387;28;20679;-59
2021/01/31 05:53:20;;;;;;;12.13;9.67;;;5.00;90.60;;;;;;5095913;28;20651;-59
2021/01/31 05:55:47;;;;;;;13.10;10.53;;;5.00;90.80;;;;;;5114211;28;20651;-62
2021/01/31 05:58:15;;;;;;;11.33;9.80;;;5.00;90.80;;;;;;5113992;28;20656;-59
2021/01/31 06:00:42;;;;;;;12.60;11.00;;;5.00;90.80;;;;;;5112459;28;20628;-58
2021/01/31 06:03:09;;;;;;;11.40;9.77;;;5.00;90.80;;;;;;5114249;28;20658;-60
2021/01/31 06:05:36;;;;;;;12.23;10.13;;;5.00;90.80;;;;;;5114094;28;20681;-59
2021/01/31 06:08:06;;;;;;;10.70;9.70;;;5.10;90.80;;;;;;5113744;28;21235;-60
2021/01/31 06:10:35;;;;;;;11.93;9.80;;;5.10;90.70;;;;;;5113062;28;20971;-59
2021/01/31 06:13:05;;;;;;;12.10;10.03;;;5.10;90.60;;;;;;5113562;28;20715;-59
2021/01/31 06:15:37;;;;;;;11.75;10.25;;;5.00;90.50;;;;;;5110720;28;20655;-58
2021/01/31 06:18:07;;;;;;;10.60;9.50;;;5.10;90.70;;;;;;5095370;28;20194;-58
2021/01/31 06:20:35;;;;;;;10.23;8.70;;;5.00;90.60;;;;;;5093441;28;20625;-59
2021/01/31 06:23:02;;;;;;;10.43;9.20;;;5.00;90.60;;;;;;5093519;28;20620;-58
2021/01/31 06:25:37;;;;;;;12.13;9.70;;;4.90;90.80;;;;;;5093970;28;20688;-58
2021/01/31 06:28:16;;;;;;;9.20;8.30;;;4.90;90.60;;;;;;5093485;28;20612;-58
2021/01/31 06:30:44;;;;;;;9.60;7.70;;;5.00;90.60;;;;;;5094066;28;21039;-58
2021/01/31 06:33:11;;;;;;;13.40;10.50;;;5.00;90.70;;;;;;5093300;28;20703;-57
2021/01/31 06:35:37;;;;;;;9.80;8.23;;;5.00;90.70;;;;;;5094670;28;20656;-57
2021/01/31 06:38:10;;;;;;;11.83;9.57;;;5.00;90.50;;;;;;5093910;28;20662;-56
2021/01/31 06:40:42;;;;;;;9.60;8.60;;;4.90;90.60;;;;;;5110640;28;20649;-56
2021/01/31 06:43:29;;;;;;;12.70;9.83;;;4.90;90.60;;;;;;5095750;28;20974;-56
2021/01/31 06:45:58;;;;;;;11.27;10.17;;;4.80;90.60;;;;;;5114177;28;20663;-59
2021/01/31 06:48:46;;;;;;;10.40;8.77;;;4.80;90.70;;;;;;5113943;28;20619;-59
2021/01/31 06:51:25;;;;;;;10.43;9.33;;;4.80;90.70;;;;;;5114070;28;20635;-58
2021/01/31 06:54:28;;;;;;;11.00;8.63;;;4.80;90.80;;;;;;5113317;28;20696;-57
2021/01/31 06:57:20;;;;;;;13.10;9.90;;;4.80;90.70;;;;;;5109672;28;20677;-58
2021/01/31 07:00:07;;;;;;;11.00;9.70;;;4.90;90.60;;;;;;5110142;28;20633;-58
2021/01/31 07:03:06;;;;;;;11.20;10.00;;;4.90;90.40;;;;;;5071665;28;20664;-59
2021/01/31 07:05:56;;;;;;;11.30;9.57;;;4.90;90.50;;;;;;5053595;28;20659;-57
2021/01/31 07:08:36;;;;;;;10.20;8.97;;;4.90;90.50;;;;;;5113226;28;20657;-57
2021/01/31 07:11:28;;;;;;;12.10;9.77;;;4.90;90.60;;;;;;5111640;28;20628;-57
2021/01/31 07:14:20;;;;;;;10.37;9.37;;;4.90;90.60;;;;;;5112761;28;20628;-58
2021/01/31 07:16:50;;;;;;;9.07;8.17;;;4.90;90.50;;;;;;5112611;28;20612;-57
2021/01/31 07:19:18;;;;;;;11.10;9.47;;;4.80;90.50;;;;;;5111707;28;20623;-59
2021/01/31 07:21:50;;;;;;;10.23;8.80;;;4.90;90.70;;;;;;5113336;28;20620;-59
2021/01/31 07:24:18;;;;;;;13.37;8.80;;;4.90;91.20;;;;;;5112112;28;20630;-57
2021/01/31 07:26:47;;;;;;;10.90;9.53;;;4.90;90.80;;;;;;5112370;28;20676;-58
2021/01/31 07:29:15;;;;;;;10.60;9.10;;;4.90;90.80;;;;;;5112187;28;20619;-56
2021/01/31 07:31:45;;;;;;;13.30;10.23;;;4.90;90.90;;;;;;5112216;28;20667;-59
2021/01/31 07:34:16;;;;;;;13.13;9.23;;;4.90;90.70;;;;;;5111559;28;20688;-57
2021/01/31 07:36:50;;;;;;;12.73;10.47;;;4.90;90.70;;;;;;5111757;28;20646;-57
2021/01/31 07:39:20;;;;;;;9.33;8.40;;;5.00;90.60;;;;;;5112293;28;20630;-59
2021/01/31 07:41:50;;;;;;;12.70;9.60;;;5.00;90.40;;;;;;5112523;28;20675;-57
2021/01/31 07:44:17;;;;;;;10.60;9.23;;;5.00;90.30;;;;;;5111727;28;20653;-57
2021/01/31 07:46:44;;;;;;;12.00;8.60;;;5.00;90.30;;;;;;5112263;28;21235;-58
2021/01/31 07:49:11;;;;;;;10.43;9.07;;;5.00;90.30;;;;;;5111703;28;20623;-57
2021/01/31 07:52:00;;;;;;;11.47;9.20;;;5.00;90.40;;;;;;5111283;28;20690;-57
2021/01/31 07:54:27;;;;;;;12.30;9.30;;;5.00;90.40;;;;;;5091316;28;20729;-57
2021/01/31 07:56:55;;;;;;;12.07;9.93;;;5.00;90.30;;;;;;5109422;28;20639;-58
2021/01/31 07:59:26;;;;;;;10.43;9.23;;;5.10;90.40;;;;;;5112025;28;21025;-57
2021/01/31 08:01:53;;;;;;;13.27;10.40;;;5.10;90.30;;;;;;5112131;28;20681;-57
2021/01/31 08:04:47;;;;;;;10.50;9.07;;;5.10;90.20;;;;;;5110893;28;20655;-57
2021/01/31 08:07:53;;;;;;;12.30;11.07;;;5.20;90.20;;;;;;5101566;28;21267;-57
2021/01/31 08:10:40;;;;;;;11.23;9.70;;;5.20;90.20;;;;;;5110757;28;21026;-56
2021/01/31 08:13:11;;;;;;;10.67;9.23;;;5.20;90.10;;;;;;5109915;28;20735;-57
2021/01/31 08:15:39;;;;;;;12.20;8.90;;;5.30;90.10;;;;;;5111287;28;20708;-57
2021/01/31 08:18:18;;;;;;;11.83;9.67;;;5.30;90.00;;;;;;5097085;28;20633;-58
2021/01/31 08:20:48;;;;;;;9.90;8.40;;;5.30;89.90;;;;;;5091217;28;20632;-58
2021/01/31 08:23:54;;;;;;;10.63;9.20;;;5.40;90.00;;;;;;5108732;28;20653;-57
2021/01/31 08:26:45;;;;;;;10.87;7.77;;;5.40;89.50;;;;;;5110210;28;20655;-59
2021/01/31 08:29:20;;;;;;;11.30;9.90;;;5.40;89.30;;;;;;5105418;28;21064;-57
2021/01/31 08:32:03;;;;;;;12.60;9.50;;;5.40;89.30;;;;;;5111122;28;20647;-57
2021/01/31 08:34:30;;;;;;;12.30;9.63;;;5.40;89.40;;;;;;5111137;28;20650;-57
2021/01/31 08:37:18;;;;;;;11.57;9.90;;;5.40;89.60;;;;;;5110345;28;20677;-59
2021/01/31 08:39:45;;;;;;;13.13;10.07;;;5.50;89.70;;;;;;5111146;28;20632;-57
2021/01/31 08:42:13;;;;;;;9.60;8.27;;;5.50;89.20;;;;;;5105894;28;20625;-59
2021/01/31 08:44:53;;;;;;;14.20;11.07;;;5.50;89.00;;;;;;5109412;28;20696;-59
2021/01/31 08:47:20;;;;;;;10.73;9.20;;;5.50;88.60;;;;;;5109325;28;21012;-58
2021/01/31 08:49:58;;;;;;;11.27;8.90;;;5.60;88.90;;;;;;5111367;28;20620;-58
2021/01/31 08:52:25;;;;;;;13.70;10.27;;;5.60;88.60;;;;;;5111503;28;20705;-59
2021/01/31 08:54:59;;;;;;;10.50;9.40;;;5.70;88.50;;;;;;5109965;28;20646;-60
2021/01/31 08:57:27;;;;;;;11.90;9.40;;;5.70;88.20;;;;;;5110860;28;20624;-58
2021/01/31 08:59:53;;;;;;;10.80;9.70;;;5.70;88.10;;;;;;5110932;28;20709;-60
2021/01/31 09:02:24;;;;;;;10.00;8.20;;;5.70;87.90;;;;;;5107258;28;20628;-61
2021/01/31 09:04:52;;;;;;;12.43;10.30;;;5.70;87.80;;;;;;5090569;28;21054;-59
2021/01/31 09:07:25;;;;;;;9.27;8.37;;;5.80;87.60;;;;;;5090683;28;20669;-60
2021/01/31 09:09:53;;;;;;;12.17;10.10;;;5.80;87.50;;;;;;5072082;28;20620;-59
2021/01/31 09:12:21;;;;;;;11.00;9.90;;;5.80;87.50;;;;;;5090527;28;20657;-60
2021/01/31 09:14:50;;;;;;;11.47;9.87;;;5.90;87.60;;;;;;5110795;28;20709;-59
2021/01/31 09:17:24;;;;;;;11.23;9.93;;;5.80;88.20;;;;;;5112917;28;20612;-59
2021/01/31 09:20:04;;;;;;;11.60;10.40;;;5.90;87.50;;;;;;5113029;28;21248;-60
2021/01/31 09:22:31;;;;;;;11.17;10.07;;;6.00;87.20;;;;;;5095858;28;20612;-60
2021/01/31 09:25:00;;;;;;;10.40;9.30;;;6.00;87.60;;;;;;5114339;28;20657;-59
2021/01/31 09:27:27;;;;;;;15.03;10.80;;;6.10;87.30;;;;;;5114200;28;21027;-60
2021/01/31 09:29:57;;;;;;;12.40;10.53;;;6.20;87.10;;;;;;5114736;28;20613;-60
2021/01/31 09:32:25;;;;;;;12.60;11.40;;;6.20;86.90;;;;;;5113581;27;20710;-60
2021/01/31 09:34:52;;;;;;;10.17;9.13;;;6.20;87.20;;;;;;5113886;28;21140;-62
2021/01/31 09:37:21;;;;;;;11.50;10.20;;;6.10;87.10;;;;;;5114224;28;20617;-61
2021/01/31 09:39:48;;;;;;;11.33;10.20;;;6.10;87.40;;;;;;5113543;28;20624;-62
2021/01/31 09:42:15;;;;;;;12.90;10.60;;;6.20;88.10;;;;;;5114189;28;21007;-61
2021/01/31 09:44:46;;;;;;;11.20;10.13;;;6.30;87.90;;;;;;5113462;28;20997;-61
2021/01/31 09:47:13;;;;;;;11.67;10.47;;;6.30;87.50;;;;;;5113817;28;21258;-61
2021/01/31 09:49:42;;;;;;;12.07;9.97;;;6.40;87.60;;;;;;5113544;28;20787;-60
2021/01/31 09:52:09;;;;;;;12.00;10.63;;;6.50;87.70;;;;;;5113802;28;20651;-63
2021/01/31 09:54:36;;;;;;;11.47;9.93;;;6.50;88.10;;;;;;5113890;28;20702;-62
2021/01/31 09:57:04;;;;;;;10.73;9.63;;;6.50;87.40;;;;;;5113941;28;20629;-61
2021/01/31 09:59:32;;;;;;;12.47;10.77;;;6.50;87.20;;;;;;5113708;28;21189;-61
2021/01/31 10:02:04;;;;;;;12.07;10.13;;;6.60;87.00;;;;;;5113297;28;20730;-61
2021/01/31 10:04:31;;;;;;;12.20;10.40;;;6.60;87.00;;;;;;5113689;28;20649;-61
2021/01/31 10:07:06;;;;;;;13.43;11.00;;;6.60;86.90;;;;;;5112842;28;20628;-61
2021/01/31 10:09:34;;;;;;;11.93;10.00;;;6.70;86.60;;;;;;5112946;28;20882;-61
2021/01/31 10:12:23;;;;;;;9.60;8.70;;;6.70;86.00;;;;;;5113107;28;20617;-61
2021/01/31 10:14:50;;;;;;;10.70;9.70;;;6.70;86.20;;;;;;5113593;28;20715;-61
2021/01/31 10:17:18;;;;;;;13.93;10.63;;;6.70;85.70;;;;;;5111289;28;20623;-61
2021/01/31 10:19:46;;;;;;;11.57;10.27;;;6.70;85.40;;;;;;5108262;28;20626;-62
2021/01/31 10:22:15;;;;;;;12.20;10.90;;;6.70;85.70;;;;;;5113238;28;20614;-61
2021/01/31 10:24:46;;;;;;;12.20;10.60;;;6.70;85.00;;;;;;5112388;28;20690;-62
2021/01/31 10:27:23;;;;;;;11.40;9.27;;;6.70;85.40;;;;;;5113140;28;21160;-61
2021/01/31 10:29:50;;;;;;;12.90;10.83;;;6.70;85.00;;;;;;5111850;28;20622;-62
2021/01/31 10:32:22;;;;;;;11.70;10.50;;;6.80;85.50;;;;;;5113156;28;20706;-62
2021/01/31 10:34:49;;;;;;;13.67;10.70;;;6.80;85.20;;;;;;5112454;28;20654;-61
2021/01/31 10:37:17;;;;;;;10.10;9.10;;;6.80;85.10;;;;;;5112912;28;21011;-60
2021/01/31 10:39:46;;;;;;;11.70;10.37;;;6.80;85.40;;;;;;5112821;28;20984;-59
2021/01/31 10:42:12;;;;;;;11.40;10.30;;;6.70;85.80;;;;;;5111997;28;20632;-59
2021/01/31 10:44:39;;;;;;;12.37;11.10;;;6.80;85.60;;;;;;5105516;28;20744;-59
2021/01/31 10:47:06;;;;;;;12.50;10.67;;;6.90;85.30;;;;;;5110962;28;20621;-59
2021/01/31 10:49:33;;;;;;;12.13;10.93;;;6.90;84.70;;;;;;5094276;28;20629;-59
2021/01/31 10:52:01;;;;;;;13.83;11.03;;;6.90;84.70;;;;;;5111625;28;20695;-58
2021/01/31 10:54:27;;;;;;;12.83;10.23;;;6.90;84.80;;;;;;5111842;28;20657;-59
2021/01/31 10:56:54;;;;;;;12.67;10.27;;;6.90;85.00;;;;;;5111882;28;20631;-58
2021/01/31 10:59:21;;;;;;;12.17;10.50;;;6.90;84.70;;;;;;5112648;28;20630;-59
2021/01/31 11:01:48;;;;;;;12.73;11.17;;;6.90;84.40;;;;;;5112618;28;20622;-59
2021/01/31 11:04:15;;;;;;;11.73;10.27;;;6.90;85.00;;;;;;5111155;28;20683;-60
2021/01/31 11:06:43;;;;;;;11.13;9.97;;;7.00;85.30;;;;;;5113192;28;20708;-60
2021/01/31 11:09:11;;;;;;;15.03;11.30;;;7.00;85.20;;;;;;5112730;28;20676;-60
2021/01/31 11:11:38;;;;;;;11.37;10.17;;;7.10;85.20;;;;;;5094364;28;20626;-60
2021/01/31 11:14:05;;;;;;;11.27;10.07;;;7.10;85.30;;;;;;5111667;28;21295;-59
2021/01/31 11:16:32;;;;;;;12.30;10.90;;;7.00;84.90;;;;;;5112684;28;20629;-61
2021/01/31 11:18:59;;;;;;;15.17;11.30;;;7.10;84.70;;;;;;5093998;28;20670;-60
2021/01/31 11:21:26;;;;;;;12.20;10.57;;;7.10;85.60;;;;;;5104752;28;20645;-62
2021/01/31 11:23:54;;;;;;;13.33;11.93;;;7.10;84.30;;;;;;5092095;28;20619;-60
2021/01/31 11:26:22;;;;;;;14.50;11.63;;;7.10;84.60;;;;;;5095345;28;20642;-60
2021/01/31 11:28:49;;;;;;;13.90;12.50;;;7.10;84.90;;;;;;5111954;28;20669;-60
2021/01/31 11:31:15;;;;;;;14.20;12.70;;;7.10;84.60;;;;;;5111788;28;20702;-61
2021/01/31 11:33:42;;;;;;;12.33;11.07;;;7.10;84.40;;;;;;5094610;28;21239;-60
2021/01/31 11:36:09;;;;;;;15.13;12.50;;;7.10;84.30;;;;;;5111953;28;20655;-57
2021/01/31 11:38:36;;;;;;;14.60;12.70;;;7.10;84.20;;;;;;5095633;28;20627;-60
2021/01/31 11:41:03;;;;;;;15.07;13.77;;;7.10;84.50;;;;;;5113451;28;20987;-58
2021/01/31 11:43:31;;;;;;;12.23;11.03;;;7.10;84.40;;;;;;5102099;28;20653;-58
2021/01/31 11:45:57;;;;;;;13.67;10.90;;;7.00;84.60;;;;;;5109170;28;20659;-59
2021/01/31 11:48:24;;;;;;;13.20;11.27;;;7.00;85.70;;;;;;5117620;28;21035;-58
2021/01/31 11:50:51;;;;;;;13.57;12.17;;;7.10;85.30;;;;;;5112102;28;20687;-58
2021/01/31 11:53:18;;;;;;;13.60;12.20;;;7.10;85.30;;;;;;5110877;28;20680;-58
2021/01/31 11:55:46;;;;;;;12.43;11.00;;;7.10;85.10;;;;;;5112087;28;20708;-59
2021/01/31 11:58:13;;;;;;;13.77;11.13;;;7.20;85.20;;;;;;5105108;28;20680;-58
2021/01/31 12:00:40;;;;;;;12.77;11.50;;;7.20;84.90;;;;;;5109290;28;20631;-58
2021/01/31 12:03:08;;;;;;;15.80;13.13;;;7.20;85.00;;;;;;5111719;28;20625;-58
2021/01/31 12:05:35;;;;;;;13.97;11.20;;;7.20;85.50;;;;;;5111375;28;21282;-60
2021/01/31 12:08:03;;;;;;;12.30;10.70;;;7.20;85.00;;;;;;5111578;28;20777;-58
2021/01/31 12:10:32;;;;;;;13.13;11.73;;;7.20;84.60;;;;;;5092200;28;21224;-58
2021/01/31 12:12:59;;;;;;;14.70;11.50;;;7.30;84.60;;;;;;5110652;28;20715;-58
2021/01/31 12:15:26;;;;;;;14.73;10.80;;;7.30;84.60;;;;;;5111180;28;20666;-58
2021/01/31 12:17:53;;;;;;;13.63;11.50;;;7.30;84.70;;;;;;5099347;28;20616;-60
2021/01/31 12:20:20;;;;;;;11.20;10.10;;;7.30;84.50;;;;;;5090883;28;20624;-59
2021/01/31 12:22:47;;;;;;;13.53;12.13;;;7.30;84.90;;;;;;5090831;28;20627;-61
2021/01/31 12:25:15;;;;;;;11.77;10.23;;;7.30;85.40;;;;;;5090708;28;20659;-60
2021/01/31 12:27:44;;;;;;;12.70;11.30;;;7.40;85.60;;;;;;5105808;28;21114;-60
2021/01/31 12:30:12;;;;;;;13.47;11.13;;;7.40;85.60;;;;;;5111291;28;21015;-60
2021/01/31 12:32:39;;;;;;;15.00;11.07;;;7.50;85.70;;;;;;5107731;28;20676;-61
2021/01/31 12:35:08;;;;;;;14.37;12.57;;;7.50;85.20;;;;;;5101944;28;20731;-60
2021/01/31 12:37:35;;;;;;;13.90;11.47;;;7.50;84.30;;;;;;5110936;28;21028;-61
2021/01/31 12:40:01;;;;;;;13.27;11.87;;;7.50;83.80;;;;;;5100540;28;21211;-61
2021/01/31 12:42:28;;;;;;;13.33;11.97;;;7.40;83.10;;;;;;5109940;28;20635;-61
2021/01/31 12:44:55;;;;;;;12.07;10.87;;;7.40;82.40;;;;;;5110472;28;20665;-60
2021/01/31 12:47:22;;;;;;;13.47;10.67;;;7.40;82.40;;;;;;5110836;28;20641;-62
2021/01/31 12:49:49;;;;;;;13.53;12.20;;;7.30;83.00;;;;;;5104115;28;20627;-62
2021/01/31 12:52:17;;;;;;;13.77;11.33;;;7.30;83.20;;;;;;5113175;28;20644;-64
2021/01/31 12:54:44;;;;;;;11.40;10.30;;;7.40;83.20;;;;;;5113980;28;20689;-61
2021/01/31 12:57:10;;;;;;;12.80;11.13;;;7.40;83.00;;;;;;5095642;28;20687;-60